createdAt,value
2018-05-24T00:01:49.926Z,1.90
2018-05-24T00:02:48.924Z,2.20
2018-05-24T00:03:47.925Z,4.30
2018-05-24T00:04:48.428Z,2.00
2018-05-24T00:05:49.867Z,1.60
2018-05-24T00:06:48.436Z,1.60
2018-05-24T00:07:48.498Z,2.40
2018-05-24T00:08:48.425Z,1.90
2018-05-24T00:09:50.925Z,2.00
2018-05-24T00:10:49.898Z,3.70
2018-05-24T00:11:48.920Z,1.80
2018-05-24T00:12:48.925Z,1.90
2018-05-24T00:13:49.443Z,2.00
2018-05-24T00:14:49.425Z,4.40
2018-05-24T00:15:49.426Z,1.80
2018-05-24T00:16:49.429Z,1.70
2018-05-24T00:17:49.926Z,1.90
2018-05-24T00:19:10.926Z,1.80
2018-05-24T00:19:49.926Z,1.80
2018-05-24T00:20:49.925Z,2.70
2018-05-24T00:21:52.408Z,1.90
2018-05-24T00:22:49.638Z,1.90
2018-05-24T00:23:58.358Z,2.20
2018-05-24T00:24:50.425Z,1.90
2018-05-24T00:25:51.923Z,2.80
2018-05-24T00:26:50.940Z,1.90
2018-05-24T00:27:50.291Z,2.00
2018-05-24T00:28:50.391Z,1.80
2018-05-24T00:29:50.496Z,2.00
2018-05-24T00:31:12.426Z,2.10
2018-05-24T00:33:22.827Z,4.00
2018-05-24T00:34:22.839Z,2.10
2018-05-24T00:37:15.468Z,1.80
2018-05-24T00:37:54.476Z,2.30
2018-05-24T00:39:15.476Z,1.90
2018-05-24T00:40:22.974Z,1.90
2018-05-24T00:40:54.981Z,2.10
2018-05-24T00:42:17.481Z,2.50
2018-05-24T00:42:54.975Z,3.30
2018-05-24T00:44:16.484Z,2.00
2018-05-24T00:44:55.476Z,1.50
2018-05-24T00:45:55.476Z,2.10
2018-05-24T00:46:55.480Z,2.10
2018-05-24T00:47:57.437Z,1.70
2018-05-24T00:48:57.908Z,2.10
2018-05-24T00:50:16.975Z,1.80
2018-05-24T00:50:55.979Z,3.40
2018-05-24T00:52:17.480Z,2.40
2018-05-24T00:53:00.908Z,2.40
2018-05-24T00:53:57.437Z,2.00
2018-05-24T00:54:56.498Z,2.00
2018-05-24T00:56:19.976Z,1.90
2018-05-24T00:56:56.985Z,2.00
2018-05-24T00:57:56.976Z,2.10
2018-05-24T00:58:57.040Z,2.40
2018-05-24T01:01:28.751Z,2.30
2018-05-24T01:02:29.748Z,2.60
2018-05-24T01:03:28.745Z,2.70
2018-05-24T01:04:35.250Z,2.30
2018-05-24T01:05:49.469Z,2.40
2018-05-24T01:06:50.251Z,2.50
2018-05-24T01:07:29.254Z,2.30
2018-05-24T01:08:29.751Z,2.70
2018-05-24T01:09:50.752Z,2.30
2018-05-24T01:10:29.752Z,2.20
2018-05-24T01:11:29.757Z,2.50
2018-05-24T01:12:31.228Z,2.40
2018-05-24T01:13:31.683Z,2.40
2018-05-24T01:14:30.255Z,2.60
2018-05-24T01:15:30.251Z,2.60
2018-05-24T01:16:29.852Z,2.70
2018-05-24T01:17:30.749Z,2.30
2018-05-24T01:18:31.713Z,2.50
2018-05-24T01:19:30.751Z,3.80
2018-05-24T01:20:31.251Z,2.30
2018-05-24T01:21:31.250Z,2.50
2018-05-24T01:22:31.256Z,2.40
2018-05-24T01:23:31.252Z,3.00
2018-05-24T01:24:31.752Z,2.30
2018-05-24T01:25:52.752Z,2.80
2018-05-24T01:26:31.751Z,2.40
2018-05-24T01:27:31.749Z,2.50
2018-05-24T01:28:32.252Z,2.80
2018-05-24T01:29:32.252Z,2.90
2018-05-24T01:30:32.254Z,3.00
2018-05-24T01:31:32.252Z,2.40
2018-05-24T01:32:32.752Z,2.60
2018-05-24T01:33:33.749Z,2.80
2018-05-24T01:34:34.685Z,2.60
2018-05-24T01:35:53.752Z,2.90
2018-05-24T01:36:33.249Z,2.90
2018-05-24T01:37:47.290Z,3.00
2018-05-24T01:38:33.256Z,2.70
2018-05-24T01:41:04.901Z,3.00
2018-05-24T01:42:04.907Z,3.00
2018-05-24T01:43:05.846Z,2.60
2018-05-24T01:45:36.667Z,2.60
2018-05-24T01:46:36.672Z,3.00
2018-05-24T01:47:36.156Z,4.20
2018-05-24T01:50:10.919Z,3.70
2018-05-24T01:51:09.927Z,2.90
2018-05-24T01:52:08.929Z,2.80
2018-05-24T01:53:11.429Z,3.00
2018-05-24T01:58:43.674Z,3.40
2018-05-24T01:59:43.675Z,2.90
2018-05-24T02:00:43.674Z,3.10
2018-05-24T02:01:44.174Z,2.90
2018-05-24T02:02:44.139Z,3.50
2018-05-24T02:03:44.179Z,3.20
2018-05-24T02:04:58.178Z,3.10
2018-05-24T02:05:43.776Z,3.00
2018-05-24T02:07:05.675Z,3.70
2018-05-24T02:07:44.033Z,3.30
2018-05-24T02:08:44.672Z,3.20
2018-05-24T02:09:51.172Z,3.00
2018-05-24T02:10:45.178Z,3.10
2018-05-24T02:12:06.174Z,3.40
2018-05-24T02:13:06.173Z,3.20
2018-05-24T02:14:06.687Z,3.60
2018-05-24T02:14:48.606Z,3.30
2018-05-24T02:15:45.674Z,3.30
2018-05-24T02:16:45.676Z,3.50
2018-05-24T02:17:46.206Z,3.50
2018-05-24T02:18:46.174Z,3.40
2018-05-24T02:19:46.174Z,3.30
2018-05-24T02:20:46.173Z,4.00
2018-05-24T02:21:52.675Z,4.10
2018-05-24T02:22:46.678Z,4.30
2018-05-24T02:23:46.675Z,4.00
2018-05-24T02:24:46.672Z,4.10
2018-05-24T02:25:47.176Z,4.30
2018-05-24T02:26:47.181Z,4.40
2018-05-24T02:27:48.130Z,4.00
2018-05-24T02:28:47.175Z,4.60
2018-05-24T02:29:48.606Z,4.80
2018-05-24T02:30:51.107Z,4.60
2018-05-24T02:31:47.021Z,4.50
2018-05-24T02:32:47.674Z,4.40
2018-05-24T02:33:47.272Z,4.60
2018-05-24T02:34:48.175Z,4.80
2018-05-24T02:36:09.180Z,4.30
2018-05-24T02:36:48.178Z,4.50
2018-05-24T02:37:51.673Z,4.60
2018-05-24T02:39:09.676Z,4.80
2018-05-24T02:39:50.675Z,4.20
2018-05-24T02:40:50.107Z,4.10
2018-05-24T02:43:19.709Z,4.40
2018-05-24T02:44:20.446Z,4.00
2018-05-24T02:45:41.446Z,4.30
2018-05-24T02:46:41.949Z,4.00
2018-05-24T02:47:41.944Z,4.10
2018-05-24T02:48:20.944Z,4.30
2018-05-24T02:49:20.947Z,4.00
2018-05-24T02:50:20.546Z,4.00
2018-05-24T02:51:20.645Z,4.60
2018-05-24T02:52:21.446Z,4.40
2018-05-24T02:53:20.796Z,4.30
2018-05-24T02:54:21.879Z,4.20
2018-05-24T02:55:20.985Z,4.30
2018-05-24T02:56:22.010Z,4.10
2018-05-24T02:57:21.944Z,4.40
2018-05-24T02:58:22.930Z,4.40
2018-05-24T02:59:21.957Z,4.10
2018-05-24T03:00:49.446Z,4.00
2018-05-24T03:01:21.675Z,4.40
2018-05-24T03:03:55.377Z,4.10
2018-05-24T03:04:53.931Z,4.30
2018-05-24T03:06:14.929Z,4.10
2018-05-24T03:07:15.430Z,4.00
2018-05-24T03:07:53.655Z,4.20
2018-05-24T03:09:15.436Z,4.10
2018-05-24T03:09:57.515Z,5.20
2018-05-24T03:11:00.928Z,4.00
2018-05-24T03:12:15.930Z,4.70
2018-05-24T03:12:54.931Z,4.40
2018-05-24T03:13:55.892Z,4.30
2018-05-24T03:14:54.387Z,4.60
2018-05-24T03:16:16.430Z,4.90
2018-05-24T03:16:55.432Z,4.80
2018-05-24T03:17:57.425Z,4.80
2018-05-24T03:19:16.446Z,4.50
2018-05-24T03:19:55.432Z,4.40
2018-05-24T03:20:55.931Z,4.60
2018-05-24T03:21:55.932Z,4.80
2018-05-24T03:22:55.283Z,4.80
2018-05-24T03:23:55.924Z,5.00
2018-05-24T03:24:56.430Z,4.80
2018-05-24T03:25:56.427Z,4.70
2018-05-24T03:26:56.427Z,4.80
2018-05-24T03:27:56.430Z,4.50
2018-05-24T03:28:56.930Z,5.20
2018-05-24T03:30:10.929Z,4.50
2018-05-24T03:30:56.932Z,4.40
2018-05-24T03:31:56.929Z,4.60
2018-05-24T03:33:04.864Z,4.80
2018-05-24T03:33:56.642Z,4.50
2018-05-24T03:34:59.430Z,4.50
2018-05-24T03:35:58.361Z,4.70
2018-05-24T03:36:59.407Z,4.70
2018-05-24T03:37:57.954Z,4.40
2018-05-24T03:39:03.929Z,4.80
2018-05-24T03:40:00.361Z,4.40
2018-05-24T03:40:57.931Z,4.60
2018-05-24T03:42:21.861Z,4.80
2018-05-24T03:43:25.452Z,5.00
2018-05-24T03:43:58.433Z,4.90
2018-05-24T03:46:30.060Z,5.10
2018-05-24T03:47:30.068Z,4.70
2018-05-24T03:48:30.068Z,4.80
2018-05-24T03:49:30.570Z,4.60
2018-05-24T03:50:30.567Z,4.70
2018-05-24T03:51:30.571Z,4.80
2018-05-24T03:52:30.568Z,4.20
2018-05-24T03:53:32.526Z,4.60
2018-05-24T03:54:31.067Z,4.90
2018-05-24T03:55:32.508Z,4.60
2018-05-24T03:56:31.093Z,4.50
2018-05-24T03:57:31.081Z,4.60
2018-05-24T03:58:52.567Z,4.60
2018-05-24T03:59:52.567Z,4.60
2018-05-24T04:00:33.563Z,5.00
2018-05-24T04:01:31.037Z,4.10
2018-05-24T04:02:34.071Z,4.30
2018-05-24T04:03:32.067Z,4.90
2018-05-24T04:04:32.068Z,5.10
2018-05-24T04:05:32.069Z,4.50
2018-05-24T04:06:32.583Z,4.60
2018-05-24T04:07:34.566Z,5.10
2018-05-24T04:08:31.917Z,5.40
2018-05-24T04:09:53.567Z,5.10
2018-05-24T04:10:34.162Z,4.70
2018-05-24T04:11:54.116Z,5.00
2018-05-24T04:12:39.064Z,4.40
2018-05-24T04:13:33.067Z,4.60
2018-05-24T04:14:35.568Z,4.50
2018-05-24T04:17:05.483Z,4.80
2018-05-24T04:18:05.461Z,4.20
2018-05-24T04:19:26.492Z,4.70
2018-05-24T04:21:37.257Z,4.60
2018-05-24T04:22:37.264Z,4.40
2018-05-24T04:23:37.268Z,4.90
2018-05-24T04:24:37.762Z,4.50
2018-05-24T04:25:37.764Z,4.50
2018-05-24T04:26:37.764Z,4.30
2018-05-24T04:27:37.764Z,4.80
2018-05-24T04:30:09.520Z,4.10
2018-05-24T04:31:11.527Z,4.20
2018-05-24T04:32:09.527Z,4.80
2018-05-24T04:33:31.032Z,4.40
2018-05-24T04:34:31.035Z,4.10
2018-05-24T04:35:10.029Z,4.40
2018-05-24T04:36:10.027Z,4.80
2018-05-24T04:38:41.780Z,4.30
2018-05-24T04:39:41.788Z,4.50
2018-05-24T04:40:41.264Z,4.20
2018-05-24T04:41:42.293Z,4.20
2018-05-24T04:42:42.295Z,4.40
2018-05-24T04:43:42.288Z,4.20
2018-05-24T04:44:42.292Z,3.90
2018-05-24T04:45:42.788Z,4.30
2018-05-24T04:46:42.791Z,4.50
2018-05-24T04:47:42.795Z,4.20
2018-05-24T04:48:42.788Z,4.30
2018-05-24T04:49:43.290Z,4.40
2018-05-24T04:50:43.295Z,4.10
2018-05-24T04:51:43.286Z,4.40
2018-05-24T04:52:43.288Z,4.10
2018-05-24T04:54:05.814Z,3.90
2018-05-24T04:54:43.788Z,4.10
2018-05-24T04:55:43.789Z,4.10
2018-05-24T04:56:43.790Z,4.50
2018-05-24T04:57:43.386Z,4.10
2018-05-24T04:59:07.288Z,3.90
2018-05-24T04:59:44.288Z,3.90
2018-05-24T05:00:43.781Z,4.10
2018-05-24T05:01:46.794Z,4.00
2018-05-24T05:03:11.793Z,4.40
2018-05-24T05:03:44.789Z,4.40
2018-05-24T05:04:50.794Z,3.70
2018-05-24T05:06:05.395Z,4.20
2018-05-24T05:06:51.226Z,3.70
2018-05-24T05:07:45.294Z,3.90
2018-05-24T05:08:45.288Z,4.40
2018-05-24T05:09:44.890Z,3.90
2018-05-24T05:11:06.791Z,4.30
2018-05-24T05:11:45.788Z,4.20
2018-05-24T05:12:49.721Z,4.20
2018-05-24T05:13:46.289Z,4.70
2018-05-24T05:15:07.289Z,4.50
2018-05-24T05:15:46.289Z,4.30
2018-05-24T05:16:46.289Z,4.50
2018-05-24T05:17:46.789Z,4.30
2018-05-24T05:19:09.789Z,3.90
2018-05-24T05:20:08.771Z,4.10
2018-05-24T05:20:46.248Z,4.40
2018-05-24T05:22:01.289Z,4.10
2018-05-24T05:22:47.289Z,5.10
2018-05-24T05:23:47.289Z,4.30
2018-05-24T05:24:47.288Z,4.50
2018-05-24T05:25:47.784Z,4.20
2018-05-24T05:27:08.789Z,3.90
2018-05-24T05:27:47.793Z,4.50
2018-05-24T05:28:47.275Z,5.00
2018-05-24T05:29:48.290Z,4.80
2018-05-24T05:30:48.296Z,5.20
2018-05-24T05:31:48.297Z,4.50
2018-05-24T05:32:48.290Z,4.90
2018-05-24T05:33:48.789Z,5.10
2018-05-24T05:34:48.790Z,4.80
2018-05-24T05:35:48.137Z,4.80
2018-05-24T05:36:48.789Z,5.10
2018-05-24T05:39:20.546Z,4.50
2018-05-24T05:40:22.557Z,4.50
2018-05-24T05:41:20.555Z,5.30
2018-05-24T05:42:23.528Z,5.00
2018-05-24T05:43:20.248Z,5.40
2018-05-24T05:44:21.053Z,5.40
2018-05-24T05:45:22.527Z,5.20
2018-05-24T05:46:21.052Z,4.60
2018-05-24T05:47:21.555Z,5.40
2018-05-24T05:48:21.552Z,6.30
2018-05-24T05:49:21.552Z,5.30
2018-05-24T05:50:21.552Z,5.20
2018-05-24T05:51:22.059Z,5.70
2018-05-24T05:52:45.051Z,5.80
2018-05-24T05:53:43.055Z,5.50
2018-05-24T05:54:21.559Z,5.80
2018-05-24T05:55:43.555Z,5.40
2018-05-24T05:56:22.552Z,5.30
2018-05-24T05:57:22.554Z,5.40
2018-05-24T05:58:43.553Z,6.20
2018-05-24T05:59:45.484Z,5.50
2018-05-24T06:00:44.054Z,5.90
2018-05-24T06:01:44.068Z,6.60
2018-05-24T06:02:25.083Z,5.70
2018-05-24T06:03:22.705Z,5.90
2018-05-24T06:04:24.510Z,6.20
2018-05-24T06:05:24.524Z,6.00
2018-05-24T06:06:23.552Z,6.10
2018-05-24T06:07:24.496Z,6.90
2018-05-24T06:09:55.901Z,6.70
2018-05-24T06:10:55.909Z,7.20
2018-05-24T06:12:16.907Z,6.20
2018-05-24T06:13:17.465Z,6.20
2018-05-24T06:15:48.035Z,6.70
2018-05-24T06:16:27.816Z,6.30
2018-05-24T06:17:48.814Z,5.90
2018-05-24T06:18:29.316Z,5.80
2018-05-24T06:19:28.316Z,5.90
2018-05-24T06:20:28.310Z,6.40
2018-05-24T06:21:29.283Z,6.40
2018-05-24T06:22:30.814Z,7.10
2018-05-24T06:23:28.814Z,7.30
2018-05-24T06:24:42.817Z,6.30
2018-05-24T06:25:28.820Z,6.20
2018-05-24T06:26:57.312Z,6.70
2018-05-24T06:27:30.748Z,6.70
2018-05-24T06:28:29.467Z,6.60
2018-05-24T06:29:28.753Z,6.40
2018-05-24T06:32:24.987Z,5.80
2018-05-24T06:33:01.062Z,6.10
2018-05-24T06:34:21.510Z,6.10
2018-05-24T06:36:34.209Z,6.30
2018-05-24T06:37:32.124Z,6.70
2018-05-24T06:38:36.709Z,6.60
2018-05-24T06:39:33.277Z,6.50
2018-05-24T06:40:42.709Z,7.10
2018-05-24T06:41:33.287Z,6.80
2018-05-24T06:42:33.278Z,6.90
2018-05-24T06:43:47.776Z,6.40
2018-05-24T06:44:33.004Z,7.40
2018-05-24T06:45:33.777Z,7.10
2018-05-24T06:46:34.824Z,6.90
2018-05-24T06:47:55.278Z,6.90
2018-05-24T06:50:05.665Z,7.20
2018-05-24T06:51:05.013Z,6.60
2018-05-24T06:52:05.669Z,6.80
2018-05-24T06:53:08.177Z,6.50
2018-05-24T06:54:06.173Z,6.70
2018-05-24T06:55:06.172Z,6.80
2018-05-24T06:56:06.173Z,6.90
2018-05-24T06:57:06.671Z,7.70
2018-05-24T06:58:06.669Z,6.60
2018-05-24T06:59:31.101Z,7.50
2018-05-24T07:01:07.169Z,7.90
2018-05-24T07:02:07.169Z,6.10
2018-05-24T07:03:07.174Z,6.00
2018-05-24T07:04:13.669Z,6.40
2018-05-24T07:05:36.102Z,6.40
2018-05-24T07:06:06.900Z,6.50
2018-05-24T07:08:39.159Z,6.70
2018-05-24T07:09:38.525Z,6.90
2018-05-24T07:12:32.285Z,6.10
2018-05-24T07:13:25.286Z,6.50
2018-05-24T07:14:32.798Z,5.80
2018-05-24T07:15:11.039Z,6.60
2018-05-24T07:16:32.792Z,6.80
2018-05-24T07:17:32.794Z,7.00
2018-05-24T07:18:26.353Z,6.30
2018-05-24T07:19:11.540Z,6.30
2018-05-24T07:20:15.741Z,6.60
2018-05-24T07:21:33.293Z,6.20
2018-05-24T07:23:44.079Z,6.90
2018-05-24T07:24:44.088Z,7.20
2018-05-24T07:25:44.073Z,6.80
2018-05-24T07:26:43.694Z,7.60
2018-05-24T07:27:43.805Z,7.00
2018-05-24T07:29:05.571Z,6.70
2018-05-24T07:29:44.569Z,6.80
2018-05-24T07:30:44.174Z,6.30
2018-05-24T07:31:45.085Z,6.30
2018-05-24T07:32:44.452Z,6.50
2018-05-24T07:33:45.078Z,6.60
2018-05-24T07:35:06.572Z,6.50
2018-05-24T07:36:05.784Z,6.90
2018-05-24T07:37:06.572Z,6.40
2018-05-24T07:37:46.623Z,7.00
2018-05-24T07:39:07.075Z,6.80
2018-05-24T07:39:45.334Z,6.80
2018-05-24T07:40:48.075Z,6.90
2018-05-24T07:41:46.072Z,6.80
2018-05-24T07:43:07.573Z,6.70
2018-05-24T07:43:46.579Z,6.60
2018-05-24T07:46:18.098Z,6.70
2018-05-24T07:47:18.140Z,6.30
2018-05-24T07:48:41.612Z,6.50
2018-05-24T07:50:49.877Z,6.60
2018-05-24T07:53:42.392Z,6.80
2018-05-24T07:54:20.739Z,6.00
2018-05-24T07:55:49.853Z,5.90
2018-05-24T07:56:42.892Z,6.10
2018-05-24T07:57:21.903Z,6.30
2018-05-24T08:00:13.989Z,6.00
2018-05-24T08:00:59.933Z,6.30
2018-05-24T08:03:16.934Z,6.60
2018-05-24T08:03:53.930Z,6.30
2018-05-24T08:05:00.365Z,6.60
2018-05-24T08:06:01.366Z,6.40
2018-05-24T08:08:25.940Z,6.70
2018-05-24T08:09:25.952Z,6.20
2018-05-24T08:11:58.219Z,6.60
2018-05-24T08:12:57.575Z,6.50
2018-05-24T08:13:59.230Z,6.50
2018-05-24T08:14:58.735Z,7.20
2018-05-24T08:16:12.733Z,6.50
2018-05-24T08:16:58.760Z,6.70
2018-05-24T08:17:58.729Z,6.40
2018-05-24T08:18:59.229Z,7.10
2018-05-24T08:19:59.226Z,6.60
2018-05-24T08:20:59.256Z,6.30
2018-05-24T08:21:59.231Z,7.50
2018-05-24T08:23:19.821Z,6.40
2018-05-24T08:23:58.925Z,6.90
2018-05-24T08:25:21.728Z,6.30
2018-05-24T08:26:23.170Z,6.30
2018-05-24T08:27:00.728Z,6.40
2018-05-24T08:27:59.331Z,7.10
2018-05-24T08:29:22.226Z,7.00
2018-05-24T08:30:00.229Z,6.60
2018-05-24T08:31:00.229Z,6.40
2018-05-24T08:32:20.838Z,6.10
2018-05-24T08:32:59.948Z,6.40
2018-05-24T08:34:00.043Z,6.60
2018-05-24T08:35:21.731Z,6.30
2018-05-24T08:36:07.703Z,6.50
2018-05-24T08:37:22.228Z,6.60
2018-05-24T08:38:03.231Z,6.90
2018-05-24T08:39:01.231Z,6.80
2018-05-24T08:40:01.231Z,6.50
2018-05-24T08:41:03.729Z,6.70
2018-05-24T08:42:22.736Z,7.30
2018-05-24T08:43:01.088Z,7.50
2018-05-24T08:44:01.729Z,6.60
2018-05-24T08:45:02.231Z,7.00
2018-05-24T08:46:16.264Z,7.10
2018-05-24T08:47:02.251Z,7.30
2018-05-24T08:48:03.165Z,7.60
2018-05-24T08:49:09.727Z,7.10
2018-05-24T08:50:22.933Z,6.90
2018-05-24T08:51:04.709Z,7.20
2018-05-24T08:52:03.161Z,7.20
2018-05-24T08:53:03.255Z,7.20
2018-05-24T08:54:03.169Z,7.00
2018-05-24T08:55:24.230Z,6.30
2018-05-24T08:56:03.232Z,6.70
2018-05-24T08:57:03.230Z,7.20
2018-05-24T08:58:02.830Z,6.80
2018-05-24T08:59:03.729Z,7.20
2018-05-24T09:00:26.729Z,7.00
2018-05-24T09:01:03.730Z,7.00
2018-05-24T09:02:05.195Z,7.10
2018-05-24T09:04:34.862Z,9.20
2018-05-24T09:05:41.579Z,6.80
2018-05-24T09:06:56.577Z,7.10
2018-05-24T09:07:50.152Z,7.20
2018-05-24T09:08:50.077Z,6.70
2018-05-24T09:09:57.078Z,7.00
2018-05-24T09:10:57.077Z,6.80
2018-05-24T09:11:57.079Z,7.50
2018-05-24T09:12:35.683Z,7.50
2018-05-24T09:13:36.577Z,7.40
2018-05-24T09:14:36.584Z,7.50
2018-05-24T09:15:36.586Z,7.20
2018-05-24T09:16:43.084Z,7.60
2018-05-24T09:17:43.078Z,7.20
2018-05-24T09:18:37.148Z,7.50
2018-05-24T09:19:37.078Z,7.30
2018-05-24T09:20:51.076Z,7.20
2018-05-24T09:21:37.582Z,7.20
2018-05-24T09:22:58.579Z,7.70
2018-05-24T09:23:37.576Z,7.50
2018-05-24T09:24:37.581Z,8.00
2018-05-24T09:25:59.084Z,7.80
2018-05-24T09:26:38.078Z,7.90
2018-05-24T09:27:38.077Z,7.50
2018-05-24T09:28:38.078Z,8.00
2018-05-24T09:29:38.623Z,7.80
2018-05-24T09:30:38.600Z,7.90
2018-05-24T09:36:13.063Z,7.90
2018-05-24T09:37:13.975Z,7.00
2018-05-24T09:39:44.697Z,7.60
2018-05-24T09:41:05.706Z,7.30
2018-05-24T09:42:12.254Z,7.70
2018-05-24T09:42:45.202Z,8.00
2018-05-24T09:43:45.204Z,7.30
2018-05-24T09:44:51.205Z,7.50
2018-05-24T09:45:46.677Z,7.60
2018-05-24T09:48:17.061Z,8.50
2018-05-24T09:49:17.068Z,8.30
2018-05-24T09:50:17.073Z,8.50
2018-05-24T09:51:17.567Z,9.20
2018-05-24T09:52:17.566Z,9.30
2018-05-24T09:53:17.567Z,8.80
2018-05-24T09:54:17.568Z,9.30
2018-05-24T09:55:17.260Z,8.90
2018-05-24T09:56:20.075Z,9.10
2018-05-24T09:57:18.073Z,9.70
2018-05-24T09:58:18.067Z,10.20
2018-05-24T09:59:18.575Z,10.00
2018-05-24T10:01:51.999Z,9.40
2018-05-24T10:02:50.002Z,9.80
2018-05-24T10:03:51.007Z,9.20
2018-05-24T10:05:12.992Z,9.40
2018-05-24T10:05:50.499Z,9.10
2018-05-24T10:06:50.508Z,9.60
2018-05-24T10:07:49.979Z,9.30
2018-05-24T10:10:43.297Z,9.70
2018-05-24T10:11:22.255Z,10.20
2018-05-24T10:12:22.257Z,9.90
2018-05-24T10:13:43.762Z,9.60
2018-05-24T10:14:21.996Z,8.80
2018-05-24T10:15:22.755Z,8.60
2018-05-24T10:16:23.385Z,8.20
2018-05-24T10:17:25.259Z,9.30
2018-05-24T10:19:54.653Z,10.20
2018-05-24T10:20:54.668Z,9.50
2018-05-24T10:21:54.171Z,9.70
2018-05-24T10:22:55.193Z,9.40
2018-05-24T10:23:55.171Z,9.60
2018-05-24T10:25:18.138Z,9.30
2018-05-24T10:25:54.606Z,10.00
2018-05-24T10:27:15.719Z,9.30
2018-05-24T10:27:55.661Z,9.60
2018-05-24T10:28:57.663Z,10.30
2018-05-24T10:30:09.660Z,9.20
2018-05-24T10:30:55.660Z,9.80
2018-05-24T10:31:55.262Z,9.30
2018-05-24T10:33:02.181Z,9.00
2018-05-24T10:33:56.174Z,8.70
2018-05-24T10:34:56.174Z,8.40
2018-05-24T10:35:58.623Z,8.50
2018-05-24T10:37:16.833Z,8.90
2018-05-24T10:37:56.668Z,8.40
2018-05-24T10:39:02.661Z,8.60
2018-05-24T10:39:56.661Z,8.60
2018-05-24T10:41:18.161Z,8.00
2018-05-24T10:42:17.382Z,8.50
2018-05-24T10:43:03.158Z,8.70
2018-05-24T10:43:57.164Z,9.10
2018-05-24T10:45:17.844Z,9.00
2018-05-24T10:46:18.661Z,8.60
2018-05-24T10:46:57.789Z,8.70
2018-05-24T10:48:02.095Z,8.40
2018-05-24T10:48:58.161Z,9.10
2018-05-24T10:49:58.159Z,8.80
2018-05-24T10:50:58.224Z,8.00
2018-05-24T10:51:58.167Z,8.00
2018-05-24T10:53:19.661Z,8.90
2018-05-24T10:54:01.093Z,9.10
2018-05-24T10:54:58.662Z,9.00
2018-05-24T10:55:58.169Z,10.60
2018-05-24T10:57:20.173Z,9.60
2018-05-24T10:57:59.168Z,10.30
2018-05-24T10:58:59.162Z,10.10
2018-05-24T11:01:51.865Z,11.70
2018-05-24T11:02:30.210Z,12.40
2018-05-24T11:03:30.856Z,12.70
2018-05-24T11:04:33.475Z,13.60
2018-05-24T11:05:34.286Z,13.20
2018-05-24T11:06:31.392Z,12.80
2018-05-24T11:07:31.346Z,12.90
2018-05-24T11:08:45.851Z,12.30
2018-05-24T11:09:33.820Z,13.60
2018-05-24T11:10:31.883Z,13.50
2018-05-24T11:11:31.855Z,14.40
2018-05-24T11:14:04.113Z,14.80
2018-05-24T11:15:04.116Z,14.70
2018-05-24T11:16:04.113Z,14.30
2018-05-24T11:17:04.126Z,15.70
2018-05-24T11:18:04.613Z,15.30
2018-05-24T11:19:04.611Z,16.00
2018-05-24T11:20:04.610Z,15.70
2018-05-24T11:21:04.089Z,15.70
2018-05-24T11:22:05.114Z,14.30
2018-05-24T11:23:05.110Z,14.70
2018-05-24T11:24:05.113Z,16.00
2018-05-24T11:25:04.600Z,16.20
2018-05-24T11:27:50.844Z,17.00
2018-05-24T11:30:09.292Z,16.40
2018-05-24T11:31:08.396Z,14.70
2018-05-24T11:32:09.392Z,16.50
2018-05-24T11:33:28.907Z,17.80
2018-05-24T11:35:40.178Z,17.20
2018-05-24T11:36:40.181Z,17.80
2018-05-24T11:37:40.182Z,18.00
2018-05-24T11:40:25.974Z,17.00
2018-05-24T11:41:11.975Z,16.90
2018-05-24T11:42:11.986Z,18.10
2018-05-24T11:43:11.655Z,16.60
2018-05-24T11:44:18.482Z,16.70
2018-05-24T11:45:18.481Z,16.90
2018-05-24T11:46:12.479Z,17.00
2018-05-24T11:48:44.238Z,17.70
2018-05-24T11:49:44.247Z,19.20
2018-05-24T11:50:43.722Z,18.60
2018-05-24T11:52:05.827Z,18.60
2018-05-24T11:52:50.799Z,18.30
2018-05-24T11:53:44.745Z,18.90
2018-05-24T11:54:44.746Z,20.50
2018-05-24T11:55:46.713Z,19.60
2018-05-24T11:57:12.249Z,20.00
2018-05-24T11:57:45.244Z,19.20
2018-05-24T11:58:45.245Z,19.50
2018-05-24T12:00:05.870Z,19.60
2018-05-24T12:00:47.246Z,19.60
2018-05-24T12:02:06.081Z,20.90
2018-05-24T12:02:46.680Z,20.70
2018-05-24T12:04:01.244Z,22.30
2018-05-24T12:04:46.245Z,21.10
2018-05-24T12:05:46.278Z,21.00
2018-05-24T12:07:07.782Z,21.20
2018-05-24T12:08:00.753Z,20.50
2018-05-24T12:08:47.678Z,21.60
2018-05-24T12:09:46.769Z,22.20
2018-05-24T12:10:46.748Z,21.90
2018-05-24T12:11:46.387Z,23.50
2018-05-24T12:13:01.243Z,24.40
2018-05-24T12:13:49.246Z,25.10
2018-05-24T12:14:47.245Z,24.90
2018-05-24T12:15:46.847Z,24.30
2018-05-24T12:16:47.755Z,26.10
2018-05-24T12:17:47.745Z,24.90
2018-05-24T12:18:47.745Z,26.00
2018-05-24T12:21:23.450Z,26.10
2018-05-24T12:22:19.518Z,26.50
2018-05-24T12:23:19.067Z,27.40
2018-05-24T12:24:19.157Z,29.00
2018-05-24T12:25:20.031Z,27.10
2018-05-24T12:26:20.019Z,26.30
2018-05-24T12:27:20.031Z,27.60
2018-05-24T12:28:47.529Z,26.60
2018-05-24T12:29:41.518Z,27.60
2018-05-24T12:30:20.515Z,27.30
2018-05-24T12:31:19.988Z,27.60
2018-05-24T12:32:23.035Z,28.50
2018-05-24T12:33:20.256Z,27.50
2018-05-24T12:34:42.020Z,27.50
2018-05-24T12:35:21.079Z,26.50
2018-05-24T12:36:42.519Z,28.00
2018-05-24T12:37:21.529Z,27.20
2018-05-24T12:38:21.519Z,26.90
2018-05-24T12:39:21.520Z,26.40
2018-05-24T12:40:43.016Z,26.80
2018-05-24T12:41:22.024Z,27.20
2018-05-24T12:42:22.026Z,27.70
2018-05-24T12:43:22.954Z,27.10
2018-05-24T12:44:22.519Z,26.30
2018-05-24T12:45:22.525Z,27.40
2018-05-24T12:46:23.517Z,26.80
2018-05-24T12:47:22.523Z,27.40
2018-05-24T12:48:23.030Z,27.20
2018-05-24T12:49:45.039Z,27.80
2018-05-24T12:50:44.006Z,25.70
2018-05-24T12:51:25.132Z,28.20
2018-05-24T12:52:50.580Z,27.20
2018-05-24T12:55:51.791Z,26.60
2018-05-24T12:58:42.847Z,27.80
2018-05-24T12:59:25.796Z,27.10
2018-05-24T13:01:52.767Z,26.20
2018-05-24T13:02:53.487Z,26.60
2018-05-24T13:03:53.484Z,27.10
2018-05-24T13:04:53.085Z,27.00
2018-05-24T13:07:46.342Z,28.00
2018-05-24T13:08:24.714Z,27.00
2018-05-24T13:09:46.415Z,26.10
2018-05-24T13:10:24.975Z,27.50
2018-05-24T13:11:47.783Z,28.30
2018-05-24T13:13:57.372Z,28.10
2018-05-24T13:14:56.733Z,27.80
2018-05-24T13:15:57.385Z,27.80
2018-05-24T13:17:21.354Z,29.00
2018-05-24T13:17:57.878Z,29.00
2018-05-24T13:19:18.877Z,28.80
2018-05-24T13:19:57.878Z,29.30
2018-05-24T13:20:59.810Z,28.90
2018-05-24T13:21:58.378Z,29.70
2018-05-24T13:23:19.388Z,30.50
2018-05-24T13:23:58.379Z,29.40
2018-05-24T13:24:58.883Z,29.50
2018-05-24T13:25:58.890Z,29.70
2018-05-24T13:26:58.881Z,29.10
2018-05-24T13:27:58.878Z,28.60
2018-05-24T13:30:52.056Z,29.40
2018-05-24T13:31:31.089Z,29.20
2018-05-24T13:32:45.563Z,28.30
2018-05-24T13:33:33.563Z,36.20
2018-05-24T13:34:52.569Z,29.50
2018-05-24T13:35:34.561Z,33.80
2018-05-24T13:36:31.044Z,30.40
2018-05-24T13:39:03.307Z,30.10
2018-05-24T13:40:03.319Z,28.20
2018-05-24T13:41:03.318Z,28.40
2018-05-24T13:42:05.819Z,27.50
2018-05-24T13:43:03.046Z,27.40
2018-05-24T13:44:24.828Z,26.60
2018-05-24T13:45:24.818Z,27.40
2018-05-24T13:46:25.322Z,26.80
2018-05-24T13:47:24.528Z,26.70
2018-05-24T13:48:06.250Z,27.50
2018-05-24T13:49:04.318Z,26.40
2018-05-24T13:50:07.254Z,26.20
2018-05-24T13:51:05.820Z,26.80
2018-05-24T13:52:04.822Z,26.40
2018-05-24T13:53:04.169Z,26.40
2018-05-24T13:54:04.827Z,25.20
2018-05-24T13:55:04.431Z,24.50
2018-05-24T13:56:05.322Z,25.70
2018-05-24T13:57:05.331Z,25.50
2018-05-24T13:58:04.818Z,25.40
2018-05-24T13:59:05.819Z,28.00
2018-05-24T14:00:12.272Z,27.80
2018-05-24T14:01:05.817Z,26.90
2018-05-24T14:02:05.820Z,27.50
2018-05-24T14:03:13.784Z,26.40
2018-05-24T14:04:06.315Z,26.90
2018-05-24T14:07:37.846Z,27.60
2018-05-24T14:08:37.412Z,26.80
2018-05-24T14:09:44.334Z,27.50
2018-05-24T14:10:37.435Z,27.40
2018-05-24T14:13:09.267Z,26.70
2018-05-24T14:15:48.053Z,26.20
2018-05-24T14:17:06.076Z,26.00
2018-05-24T14:18:03.060Z,26.20
2018-05-24T14:20:19.564Z,26.30
2018-05-24T14:21:19.567Z,26.20
2018-05-24T14:22:34.620Z,27.10
2018-05-24T14:23:13.216Z,26.10
2018-05-24T14:24:15.031Z,26.00
2018-05-24T14:25:13.389Z,26.00
2018-05-24T14:26:14.076Z,26.50
2018-05-24T14:27:35.068Z,26.20
2018-05-24T14:28:37.572Z,25.90
2018-05-24T14:29:35.574Z,26.20
2018-05-24T14:30:13.925Z,25.50
2018-05-24T14:31:14.583Z,27.40
2018-05-24T14:32:35.172Z,27.20
2018-05-24T14:35:07.442Z,27.20
2018-05-24T14:35:45.796Z,27.00
2018-05-24T14:36:46.459Z,26.90
2018-05-24T14:37:48.950Z,26.50
2018-05-24T14:39:07.948Z,26.00
2018-05-24T14:39:46.950Z,26.50
2018-05-24T14:40:46.949Z,26.10
2018-05-24T14:41:47.453Z,26.00
2018-05-24T14:42:46.966Z,24.40
2018-05-24T14:43:48.882Z,26.50
2018-05-24T14:45:08.450Z,26.00
2018-05-24T14:45:47.957Z,25.60
2018-05-24T14:46:52.381Z,25.50
2018-05-24T14:47:47.949Z,26.30
2018-05-24T14:48:47.948Z,25.20
2018-05-24T14:51:20.210Z,24.40